createdAt,value
2018-07-13T00:00:22.782Z,24.37
2018-07-13T00:01:22.763Z,24.38
2018-07-13T00:02:22.840Z,24.4
2018-07-13T00:03:22.821Z,24.38
2018-07-13T00:04:22.808Z,24.36
2018-07-13T00:05:22.893Z,24.44
2018-07-13T00:06:22.841Z,24.32
2018-07-13T00:07:22.742Z,24.41
2018-07-13T00:08:22.835Z,24.34
2018-07-13T00:09:22.764Z,24.44
2018-07-13T00:10:22.850Z,24.31
2018-07-13T00:11:22.749Z,24.34
2018-07-13T00:12:22.760Z,24.41
2018-07-13T00:13:22.833Z,24.37
2018-07-13T00:14:23.121Z,24.38
2018-07-13T00:15:22.827Z,24.38
2018-07-13T00:16:22.824Z,24.38
2018-07-13T00:17:22.809Z,24.43
2018-07-13T00:18:22.823Z,24.32
2018-07-13T00:19:22.817Z,24.41
2018-07-13T00:20:22.824Z,24.37
2018-07-13T00:21:22.821Z,24.34
2018-07-13T00:22:22.798Z,24.31
2018-07-13T00:23:22.826Z,24.29
2018-07-13T00:24:22.937Z,24.34
2018-07-13T00:25:22.844Z,24.37
2018-07-13T00:26:22.798Z,24.38
2018-07-13T00:27:22.826Z,24.34
2018-07-13T00:28:22.861Z,24.31
2018-07-13T00:29:22.847Z,24.32
2018-07-13T00:30:23.035Z,24.34
2018-07-13T00:31:22.900Z,24.37
2018-07-13T00:32:22.961Z,24.38
2018-07-13T00:33:22.917Z,24.41
2018-07-13T00:34:22.844Z,24.28
2018-07-13T00:35:22.853Z,24.38
2018-07-13T00:36:22.803Z,24.32
2018-07-13T00:37:22.893Z,24.29
2018-07-13T00:38:22.842Z,24.29
2018-07-13T00:39:22.875Z,24.28
2018-07-13T00:40:22.919Z,24.29
2018-07-13T00:41:22.867Z,24.32
2018-07-13T00:42:22.820Z,24.34
2018-07-13T00:43:22.851Z,24.29
2018-07-13T00:44:22.845Z,24.36
2018-07-13T00:45:22.925Z,24.31
2018-07-13T00:46:22.853Z,24.38
2018-07-13T00:47:22.957Z,24.29
2018-07-13T00:48:22.918Z,24.29
2018-07-13T00:49:22.912Z,24.26
2018-07-13T00:50:22.921Z,24.29
2018-07-13T00:51:22.854Z,24.36
2018-07-13T00:52:22.876Z,24.32
2018-07-13T00:53:22.945Z,24.25
2018-07-13T00:54:22.880Z,24.28
2018-07-13T00:55:22.941Z,24.29
2018-07-13T00:56:22.986Z,24.29
2018-07-13T00:57:22.923Z,24.38
2018-07-13T00:58:22.974Z,24.28
2018-07-13T00:59:22.887Z,24.31
2018-07-13T01:00:22.891Z,24.26
2018-07-13T01:01:22.920Z,24.29
2018-07-13T01:02:22.905Z,24.29
2018-07-13T01:03:22.886Z,24.31
2018-07-13T01:04:22.920Z,24.31
2018-07-13T01:05:22.970Z,24.28
2018-07-13T01:06:22.908Z,24.28
2018-07-13T01:07:22.935Z,24.34
2018-07-13T01:08:22.924Z,24.31
2018-07-13T01:09:22.945Z,24.19
2018-07-13T01:10:22.908Z,24.31
2018-07-13T01:11:22.983Z,24.41
2018-07-13T01:12:22.926Z,24.28
2018-07-13T01:13:22.953Z,24.29
2018-07-13T01:14:22.976Z,24.28
2018-07-13T01:15:22.912Z,24.36
2018-07-13T01:16:22.943Z,24.28
2018-07-13T01:17:22.955Z,24.31
2018-07-13T01:18:22.983Z,24.24
2018-07-13T01:19:23.997Z,24.37
2018-07-13T01:20:23.016Z,24.26
2018-07-13T01:21:22.979Z,24.34
2018-07-13T01:22:22.979Z,24.32
2018-07-13T01:23:22.993Z,24.31
2018-07-13T01:24:22.947Z,24.32
2018-07-13T01:25:23.020Z,24.31
2018-07-13T01:26:23.020Z,24.32
2018-07-13T01:27:23.014Z,24.25
2018-07-13T01:28:23.080Z,24.36
2018-07-13T01:29:22.952Z,24.26
2018-07-13T01:30:22.985Z,24.28
2018-07-13T01:31:23.016Z,24.34
2018-07-13T01:32:23.032Z,24.38
2018-07-13T01:33:22.952Z,24.28
2018-07-13T01:34:23.004Z,24.22
2018-07-13T01:35:22.979Z,24.28
2018-07-13T01:36:23.026Z,24.31
2018-07-13T01:37:22.979Z,24.34
2018-07-13T01:38:23.011Z,24.28
2018-07-13T01:39:23.019Z,24.29
2018-07-13T01:40:23.001Z,24.34
2018-07-13T01:41:22.949Z,24.26
2018-07-13T01:42:22.989Z,24.28
2018-07-13T01:43:22.990Z,24.36
2018-07-13T01:44:23.014Z,24.29
2018-07-13T01:45:22.956Z,24.32
2018-07-13T01:46:22.962Z,24.25
2018-07-13T01:47:23.014Z,24.36
2018-07-13T01:48:22.951Z,24.28
2018-07-13T01:49:23.009Z,24.28
2018-07-13T01:50:22.990Z,24.34
2018-07-13T01:51:22.989Z,24.36
2018-07-13T01:52:22.978Z,24.26
2018-07-13T01:53:22.949Z,24.32
2018-07-13T01:54:22.986Z,24.32
2018-07-13T01:55:23.012Z,24.31
2018-07-13T01:56:23.084Z,24.25
2018-07-13T01:57:22.985Z,24.29
2018-07-13T01:58:23.386Z,24.14
2018-07-13T01:59:23.016Z,24.25
2018-07-13T02:00:23.042Z,24.25
2018-07-13T02:01:23.004Z,24.1
2018-07-13T02:02:22.980Z,24.13
2018-07-13T02:03:23.037Z,24.24
2018-07-13T02:04:23.034Z,24.13
2018-07-13T02:05:23.087Z,24.11
2018-07-13T02:06:23.019Z,24.22
2018-07-13T02:07:23.039Z,24.22
2018-07-13T02:08:23.005Z,24.16
2018-07-13T02:09:23.014Z,24.22
2018-07-13T02:10:23.084Z,24.21
2018-07-13T02:11:23.039Z,24.22
2018-07-13T02:12:23.026Z,24.24
2018-07-13T02:13:23.061Z,24.21
2018-07-13T02:14:23.045Z,24.22
2018-07-13T02:15:23.067Z,24.24
2018-07-13T02:16:23.057Z,24.18
2018-07-13T02:17:23.021Z,24.16
2018-07-13T02:18:23.347Z,24.19
2018-07-13T02:19:23.055Z,24.21
2018-07-13T02:20:23.063Z,24.22
2018-07-13T02:21:23.137Z,24.11
2018-07-13T02:22:23.093Z,24.21
2018-07-13T02:23:23.072Z,24.21
2018-07-13T02:24:23.006Z,24.11
2018-07-13T02:25:23.067Z,24.19
2018-07-13T02:26:23.069Z,24.16
2018-07-13T02:27:23.117Z,24.21
2018-07-13T02:28:23.049Z,24.14
2018-07-13T02:29:23.024Z,24.14
2018-07-13T02:30:23.073Z,24.18
2018-07-13T02:31:23.093Z,24.1
2018-07-13T02:32:23.108Z,24.19
2018-07-13T02:33:23.056Z,24.19
2018-07-13T02:34:23.070Z,24.18
2018-07-13T02:38:51.846Z,24.19
2018-07-13T02:39:51.840Z,24.18
2018-07-13T02:40:51.829Z,24.07
2018-07-13T02:41:51.832Z,24.11
2018-07-13T02:42:51.834Z,24.18
2018-07-13T02:43:51.836Z,24.1
2018-07-13T02:44:51.880Z,24.13
2018-07-13T02:45:51.888Z,24.18
2018-07-13T02:46:51.927Z,24.11
2018-07-13T02:47:51.825Z,24.09
2018-07-13T02:48:53.216Z,24.14
2018-07-13T02:49:51.912Z,24.19
2018-07-13T02:54:20.865Z,24.13
2018-07-13T02:55:20.461Z,24.13
2018-07-13T02:56:20.438Z,24.09
2018-07-13T02:57:20.474Z,24.1
2018-07-13T02:58:20.435Z,24.13
2018-07-13T02:59:20.473Z,24.14
2018-07-13T03:00:20.438Z,24.09
2018-07-13T03:01:20.532Z,24.18
2018-07-13T03:02:20.476Z,24.14
2018-07-13T03:03:20.489Z,24.18
2018-07-13T03:04:20.451Z,24.13
2018-07-13T03:05:20.550Z,24.16
2018-07-13T03:06:20.635Z,24.11
2018-07-13T03:07:20.541Z,24.11
2018-07-13T03:08:20.503Z,24.26
2018-07-13T03:09:20.463Z,24.13
2018-07-13T03:10:20.483Z,24.18
2018-07-13T03:11:20.494Z,24.13
2018-07-13T03:12:20.469Z,24.24
2018-07-13T03:13:20.457Z,24.21
2018-07-13T03:14:20.467Z,24.24
2018-07-13T03:15:20.441Z,24.11
2018-07-13T03:16:20.478Z,24.19
2018-07-13T03:17:20.505Z,24.21
2018-07-13T03:18:20.523Z,24.14
2018-07-13T03:19:20.491Z,24.25
2018-07-13T03:20:20.500Z,24.28
2018-07-13T03:21:20.462Z,24.28
2018-07-13T03:22:20.590Z,24.14
2018-07-13T03:23:20.501Z,24.1
2018-07-13T03:24:20.504Z,24.24
2018-07-13T03:25:20.536Z,24.13
2018-07-13T03:26:20.492Z,24.11
2018-07-13T03:27:20.553Z,24.19
2018-07-13T03:28:20.586Z,24.06
2018-07-13T03:29:20.518Z,24.19
2018-07-13T03:30:20.483Z,24.1
2018-07-13T03:31:20.552Z,24.1
2018-07-13T03:32:20.534Z,24.18
2018-07-13T03:33:20.514Z,24.13
2018-07-13T03:34:20.517Z,24.22
2018-07-13T03:35:20.539Z,24.19
2018-07-13T03:36:20.521Z,24.18
2018-07-13T03:37:20.533Z,24.16
2018-07-13T03:38:20.566Z,24.22
2018-07-13T03:39:20.490Z,24.1
2018-07-13T03:40:20.528Z,24.19
2018-07-13T03:41:20.477Z,24.11
2018-07-13T03:42:20.515Z,24.13
2018-07-13T03:43:20.489Z,24.1
2018-07-13T03:44:20.502Z,24.25
2018-07-13T03:45:20.585Z,24.24
2018-07-13T03:46:20.587Z,24.24
2018-07-13T03:47:20.547Z,24.14
2018-07-13T03:48:20.694Z,24.19
2018-07-13T03:49:20.575Z,24.18
2018-07-13T03:50:20.522Z,24.09
2018-07-13T03:51:20.546Z,24.09
2018-07-13T03:52:20.595Z,24.1
2018-07-13T03:53:20.553Z,24.09
2018-07-13T03:54:20.649Z,24.14
2018-07-13T03:55:20.583Z,24.09
2018-07-13T03:56:20.551Z,24.09
2018-07-13T03:59:27.949Z,24.14
2018-07-13T03:59:39.861Z,24.14
2018-07-13T04:00:39.590Z,24.22
2018-07-13T04:05:56.275Z,24.14
2018-07-13T04:06:08.250Z,24.24
2018-07-13T04:07:08.018Z,24.09
2018-07-13T04:08:07.863Z,24.18
2018-07-13T04:09:07.865Z,24.14
2018-07-13T04:10:07.947Z,24.25
2018-07-13T04:11:07.899Z,24.19
2018-07-13T04:12:07.871Z,24.22
2018-07-13T04:13:07.870Z,24.1
2018-07-13T04:14:07.875Z,24.11
2018-07-13T04:15:08.032Z,24.25
2018-07-13T04:16:07.980Z,24.09
2018-07-13T04:17:07.998Z,24.16
2018-07-13T04:18:07.874Z,24.19
2018-07-13T04:19:07.933Z,24.09
2018-07-13T04:20:07.943Z,24.13
2018-07-13T04:21:07.920Z,24.22
2018-07-13T04:22:07.876Z,24.24
2018-07-13T04:23:07.907Z,24.19
2018-07-13T04:24:07.881Z,24.11
2018-07-13T04:25:07.873Z,24.11
2018-07-13T04:26:07.855Z,24.1
2018-07-13T04:27:07.901Z,24.28
2018-07-13T04:29:27.200Z,24.16
2018-07-13T04:30:27.273Z,24.16
2018-07-13T04:31:27.234Z,24.16
2018-07-13T04:32:27.218Z,24.19
2018-07-13T04:33:27.225Z,24.14
2018-07-13T04:34:43.844Z,24.13
2018-07-13T04:35:43.387Z,24.14
2018-07-13T04:36:43.374Z,24.1
2018-07-13T04:37:43.355Z,24.18
2018-07-13T04:38:43.385Z,24.1
2018-07-13T04:39:43.330Z,24.19
2018-07-13T04:40:43.400Z,24.14
2018-07-13T04:41:43.434Z,24.1
2018-07-13T04:42:43.390Z,24.11
2018-07-13T04:43:43.573Z,24.13
2018-07-13T04:44:43.441Z,24.19
2018-07-13T04:45:43.899Z,24.13
2018-07-13T04:46:43.455Z,24.36
2018-07-13T04:47:43.489Z,24.18
2018-07-13T04:48:43.619Z,24.16
2018-07-13T04:49:43.403Z,24.1
2018-07-13T04:50:43.380Z,24.11
2018-07-13T04:51:43.467Z,24.25
2018-07-13T04:52:43.507Z,24.1
2018-07-13T04:53:43.412Z,24.21
2018-07-13T04:54:43.402Z,24.16
2018-07-13T04:55:43.384Z,24.21
2018-07-13T04:56:43.467Z,24.11
2018-07-13T04:57:43.424Z,24.16
2018-07-13T04:58:43.505Z,24.13
2018-07-13T04:59:44.194Z,24.16
2018-07-13T05:00:43.543Z,24.09
2018-07-13T05:01:43.501Z,24.18
2018-07-13T05:02:43.493Z,24.21
2018-07-13T05:03:43.579Z,24.19
2018-07-13T05:04:43.761Z,24.14
2018-07-13T05:05:43.463Z,24.26
2018-07-13T05:06:43.412Z,24.26
2018-07-13T05:07:43.522Z,24.28
2018-07-13T05:08:43.471Z,24.19
2018-07-13T05:09:43.490Z,24.24
2018-07-13T05:10:43.457Z,24.26
2018-07-13T05:11:43.434Z,24.25
2018-07-13T05:12:43.428Z,24.29
2018-07-13T05:13:43.497Z,24.24
2018-07-13T05:14:43.506Z,24.24
2018-07-13T05:15:43.531Z,24.26
2018-07-13T05:16:43.481Z,24.19
2018-07-13T05:17:43.457Z,24.24
2018-07-13T05:18:43.488Z,24.26
2018-07-13T05:19:43.525Z,24.29
2018-07-13T05:20:43.606Z,24.22
2018-07-13T05:21:43.593Z,24.24
2018-07-13T05:22:43.534Z,24.24
2018-07-13T05:23:43.474Z,24.22
2018-07-13T05:24:43.561Z,24.19
2018-07-13T05:25:43.573Z,24.22
2018-07-13T05:26:43.621Z,24.16
2018-07-13T05:27:43.552Z,24.21
2018-07-13T05:28:43.599Z,24.25
2018-07-13T05:29:43.479Z,24.24
2018-07-13T05:30:43.598Z,24.25
2018-07-13T05:31:43.555Z,24.25
2018-07-13T05:32:43.506Z,24.31
2018-07-13T05:33:43.659Z,24.26
2018-07-13T05:34:43.854Z,24.26
2018-07-13T05:35:44.477Z,24.24
2018-07-13T05:36:43.535Z,24.36
2018-07-13T05:37:43.440Z,24.29
2018-07-13T05:38:43.540Z,24.22
2018-07-13T05:39:43.450Z,24.29
2018-07-13T05:40:43.474Z,24.25
2018-07-13T05:41:43.479Z,24.37
2018-07-13T05:42:43.432Z,24.37
2018-07-13T05:43:43.470Z,24.29
2018-07-13T05:44:43.474Z,24.36
2018-07-13T05:45:43.483Z,24.32
2018-07-13T05:46:43.487Z,24.29
2018-07-13T05:47:43.518Z,24.29
2018-07-13T05:48:43.606Z,24.29
2018-07-13T05:56:10.410Z,24.31
2018-07-13T05:56:21.946Z,24.44
2018-07-13T05:57:21.988Z,24.37
2018-07-13T05:58:21.949Z,24.38
2018-07-13T06:00:40.970Z,24.29
2018-07-13T06:01:41.677Z,24.38
2018-07-13T06:02:40.932Z,24.43
2018-07-13T06:03:40.945Z,24.29
2018-07-13T06:04:40.951Z,24.31
2018-07-13T06:05:40.924Z,24.29
2018-07-13T06:06:40.959Z,24.36
2018-07-13T06:07:40.923Z,24.31
2018-07-13T06:08:40.945Z,24.31
2018-07-13T06:09:41.146Z,24.29
2018-07-13T06:10:40.986Z,24.26
2018-07-13T06:11:41.000Z,24.31
2018-07-13T06:12:40.956Z,24.32
2018-07-13T06:13:41.029Z,24.29
2018-07-13T06:14:41.051Z,24.37
2018-07-13T06:15:41.131Z,24.37
2018-07-13T06:16:41.022Z,24.36
2018-07-13T06:17:41.108Z,24.34
2018-07-13T06:18:41.121Z,24.38
2018-07-13T06:19:40.999Z,24.38
2018-07-13T06:20:40.995Z,24.41
2018-07-13T06:21:41.038Z,24.38
2018-07-13T06:22:41.044Z,24.41
2018-07-13T06:23:40.955Z,24.43
2018-07-13T06:24:40.958Z,24.41
2018-07-13T06:25:40.962Z,24.41
2018-07-13T06:26:44.020Z,24.44
2018-07-13T06:31:13.818Z,24.47
2018-07-13T06:32:13.845Z,24.58
2018-07-13T06:33:13.818Z,24.59
2018-07-13T06:34:14.002Z,24.5
2018-07-13T06:35:13.949Z,24.32
2018-07-13T06:36:13.900Z,24.38
2018-07-13T06:37:14.035Z,24.34
2018-07-13T06:38:13.837Z,24.38
2018-07-13T06:39:13.828Z,24.28
2018-07-13T06:40:14.464Z,24.34
2018-07-13T06:41:13.873Z,24.21
2018-07-13T06:42:14.537Z,24.24
2018-07-13T06:43:13.806Z,24.25
2018-07-13T06:44:13.924Z,24.06
2018-07-13T06:45:13.856Z,23.99
2018-07-13T06:46:13.804Z,24.07
2018-07-13T06:47:13.922Z,23.91
2018-07-13T06:48:13.928Z,23.95
2018-07-13T06:49:13.905Z,23.95
2018-07-13T06:50:13.891Z,23.94
2018-07-13T06:51:13.848Z,23.99
2018-07-13T06:52:13.970Z,23.91
2018-07-13T06:53:13.955Z,23.84
2018-07-13T06:55:18.465Z,23.92
2018-07-13T07:01:56.775Z,23.94
2018-07-13T07:02:56.682Z,23.88
2018-07-13T07:03:56.841Z,24
2018-07-13T07:04:56.755Z,23.99
2018-07-13T07:05:56.775Z,23.91
2018-07-13T07:06:56.864Z,23.92
2018-07-13T07:07:56.848Z,23.76
2018-07-13T07:08:56.687Z,23.88
2018-07-13T07:09:56.753Z,23.81
2018-07-13T07:10:56.942Z,23.81
2018-07-13T07:11:56.751Z,23.86
2018-07-13T07:12:56.696Z,23.76
2018-07-13T07:13:56.782Z,23.82
2018-07-13T07:14:56.748Z,23.85
2018-07-13T07:15:56.701Z,23.81
2018-07-13T07:16:56.732Z,23.69
2018-07-13T07:17:56.806Z,23.82
2018-07-13T07:18:56.747Z,23.85
2018-07-13T07:19:56.701Z,23.81
2018-07-13T07:20:56.682Z,23.92
2018-07-13T07:21:56.756Z,23.88
2018-07-13T07:22:56.747Z,23.85
2018-07-13T07:23:56.793Z,24.03
2018-07-13T07:24:56.755Z,23.89
2018-07-13T07:25:56.773Z,23.92
2018-07-13T07:26:56.818Z,23.94
2018-07-13T07:27:56.753Z,24.03
2018-07-13T07:28:56.761Z,23.96
2018-07-13T07:29:56.765Z,24.06
2018-07-13T07:30:56.741Z,24.04
2018-07-13T07:31:56.744Z,24.06
2018-07-13T07:32:56.827Z,24.09
2018-07-13T07:37:25.684Z,24.13
2018-07-13T07:38:25.776Z,24.14
2018-07-13T07:39:25.718Z,24.18
2018-07-13T07:40:25.683Z,24.24
2018-07-13T07:41:25.664Z,24.14
2018-07-13T07:42:26.277Z,24.13
2018-07-13T07:43:25.751Z,24.22
2018-07-13T07:44:25.707Z,24.22
2018-07-13T07:45:25.718Z,24.24
2018-07-13T07:46:25.753Z,24.21
2018-07-13T07:47:25.799Z,24.26
2018-07-13T07:48:25.677Z,24.25
2018-07-13T07:49:25.733Z,24.28
2018-07-13T07:50:25.715Z,24.37
2018-07-13T07:51:25.681Z,24.22
2018-07-13T07:52:25.741Z,24.32
2018-07-13T07:53:25.738Z,24.22
2018-07-13T07:54:25.715Z,24.36
2018-07-13T07:55:25.721Z,24.32
2018-07-13T07:56:25.838Z,24.37
2018-07-13T07:57:25.834Z,24.31
2018-07-13T08:00:33.168Z,24.11
2018-07-13T08:00:45.200Z,24.1
2018-07-13T08:01:45.296Z,24.13
2018-07-13T08:02:45.166Z,24.14
2018-07-13T08:03:45.273Z,24.16
2018-07-13T08:04:45.148Z,24.25
2018-07-13T08:05:45.130Z,24.13
2018-07-13T08:06:45.631Z,24.13
2018-07-13T08:07:45.310Z,24.24
2018-07-13T08:08:45.172Z,24.14
2018-07-13T08:09:45.235Z,24.18
2018-07-13T08:10:45.126Z,24.19
2018-07-13T08:11:45.376Z,24.13
2018-07-13T08:12:45.144Z,24.06
2018-07-13T08:13:45.296Z,24.11
2018-07-13T08:14:45.239Z,24.1
2018-07-13T08:15:45.214Z,24.14
2018-07-13T08:16:45.249Z,24.07
2018-07-13T08:17:45.202Z,24.1
2018-07-13T08:18:45.307Z,24.1
2018-07-13T08:19:45.290Z,24.06
2018-07-13T08:20:45.168Z,24.06
2018-07-13T08:21:45.332Z,24.18
2018-07-13T08:22:45.140Z,24.14
2018-07-13T08:23:45.165Z,24.11
2018-07-13T08:24:45.110Z,24.19
2018-07-13T08:25:45.130Z,24.14
2018-07-13T08:26:45.314Z,24.09
2018-07-13T08:27:45.144Z,24.18
2018-07-13T08:28:45.218Z,24.22
2018-07-13T08:29:45.243Z,24.14
2018-07-13T08:30:45.139Z,24.11
2018-07-13T08:31:45.140Z,24.06
2018-07-13T08:32:45.170Z,24.09
2018-07-13T08:33:45.216Z,24.24
2018-07-13T08:34:45.155Z,24.19
2018-07-13T08:35:45.370Z,24.09
2018-07-13T08:36:45.174Z,24.22
2018-07-13T08:37:45.270Z,24.09
2018-07-13T08:38:45.264Z,24.16
2018-07-13T08:39:45.194Z,24.22
2018-07-13T08:40:45.197Z,24.13
2018-07-13T08:41:45.235Z,24.22
2018-07-13T08:42:45.231Z,24.18
2018-07-13T08:43:45.168Z,24.22
2018-07-13T08:44:45.252Z,24.11
2018-07-13T08:45:45.274Z,24.21
2018-07-13T08:46:45.163Z,24.19
2018-07-13T08:47:45.111Z,24.24
2018-07-13T08:48:45.226Z,24.29
2018-07-13T08:49:45.228Z,24.29
2018-07-13T08:50:45.241Z,24.31
2018-07-13T08:51:45.438Z,24.19
2018-07-13T08:52:45.174Z,24.28
2018-07-13T08:53:45.130Z,24.26
2018-07-13T08:54:45.258Z,24.21
2018-07-13T08:55:45.223Z,24.24
2018-07-13T08:56:45.147Z,24.22
2018-07-13T08:57:45.210Z,24.19
2018-07-13T08:58:45.215Z,24.29
2018-07-13T08:59:45.333Z,24.18
2018-07-13T09:00:45.247Z,24.26
2018-07-13T09:10:22.116Z,24.24
2018-07-13T09:10:33.575Z,24.1
2018-07-13T09:11:33.609Z,24.25
2018-07-13T09:12:35.076Z,24.32
2018-07-13T09:13:33.750Z,24.32
2018-07-13T09:14:33.575Z,24.29
2018-07-13T09:15:33.578Z,24.31
2018-07-13T09:16:33.601Z,24.31
2018-07-13T09:17:33.569Z,24.28
2018-07-13T09:18:33.579Z,24.25
2018-07-13T09:19:33.624Z,24.28
2018-07-13T09:20:33.657Z,24.29
2018-07-13T09:21:33.966Z,24.26
2018-07-13T09:22:33.599Z,24.29
2018-07-13T09:23:33.699Z,24.28
2018-07-13T09:24:33.616Z,24.31
2018-07-13T09:25:33.620Z,24.34
2018-07-13T09:26:33.614Z,24.34
2018-07-13T09:27:33.570Z,24.24
2018-07-13T09:28:33.684Z,24.29
2018-07-13T09:29:33.619Z,24.28
2018-07-13T09:30:33.670Z,24.28
2018-07-13T09:38:00.784Z,24.32
2018-07-13T09:38:13.210Z,24.31
2018-07-13T09:39:12.293Z,24.29
2018-07-13T09:40:12.330Z,24.26
2018-07-13T09:41:12.324Z,24.29
2018-07-13T09:42:12.367Z,24.36
2018-07-13T09:43:12.375Z,24.28
2018-07-13T09:44:12.312Z,24.37
2018-07-13T09:45:12.312Z,24.22
2018-07-13T09:46:12.326Z,24.32
2018-07-13T09:47:12.299Z,24.32
2018-07-13T09:48:12.443Z,24.28
2018-07-13T09:49:12.415Z,24.34
2018-07-13T09:50:12.371Z,24.34
2018-07-13T09:57:39.277Z,24.29
2018-07-13T10:02:07.879Z,24.28
2018-07-13T10:02:19.875Z,24.26
2018-07-13T10:03:19.443Z,24.32
2018-07-13T10:04:19.410Z,24.37
2018-07-13T10:05:19.451Z,24.29
2018-07-13T10:06:19.415Z,24.32
2018-07-13T10:07:19.663Z,24.31
2018-07-13T10:08:19.419Z,24.29
2018-07-13T10:09:19.388Z,24.26
2018-07-13T10:10:19.424Z,24.24
2018-07-13T10:11:19.485Z,24.34
2018-07-13T10:12:19.495Z,24.29
2018-07-13T10:13:19.531Z,24.31
2018-07-13T10:14:19.420Z,24.34
2018-07-13T10:15:19.481Z,24.29
2018-07-13T10:16:19.407Z,24.44
2018-07-13T10:17:19.429Z,24.31
2018-07-13T10:18:19.450Z,24.32
2018-07-13T10:19:19.563Z,24.37
2018-07-13T10:20:19.512Z,24.28
2018-07-13T10:21:19.462Z,24.31
2018-07-13T10:22:19.526Z,24.28
2018-07-13T10:23:19.430Z,24.36
2018-07-13T10:24:19.438Z,24.26
2018-07-13T10:25:19.566Z,24.34
2018-07-13T10:26:19.608Z,24.28
2018-07-13T10:27:19.433Z,24.32
2018-07-13T10:28:19.491Z,24.29
2018-07-13T10:29:19.620Z,24.38
2018-07-13T10:30:19.492Z,24.32
2018-07-13T10:31:19.522Z,24.37
2018-07-13T10:32:19.463Z,24.36
2018-07-13T10:33:19.461Z,24.31
2018-07-13T10:34:19.623Z,24.32
2018-07-13T10:35:19.684Z,24.31
2018-07-13T10:36:20.233Z,24.32
2018-07-13T10:37:19.462Z,24.31
2018-07-13T10:38:19.501Z,24.32
2018-07-13T10:39:19.500Z,24.36
2018-07-13T10:40:20.354Z,24.29
2018-07-13T10:41:19.571Z,24.29
2018-07-13T10:46:36.266Z,24.31
2018-07-13T10:46:47.893Z,24.28
2018-07-13T10:47:47.972Z,24.31
2018-07-13T10:49:01.051Z,24.38
2018-07-13T10:49:47.813Z,24.26
2018-07-13T10:50:48.040Z,24.32
2018-07-13T10:51:47.820Z,24.31
2018-07-13T10:52:47.818Z,24.37
2018-07-13T10:53:47.857Z,24.31
2018-07-13T10:54:47.813Z,24.31
2018-07-13T10:55:47.892Z,24.38
2018-07-13T10:56:47.839Z,24.29
2018-07-13T10:57:48.060Z,24.38
2018-07-13T10:58:47.946Z,24.38
2018-07-13T10:59:48.526Z,24.37
2018-07-13T11:00:47.957Z,24.38
2018-07-13T11:01:47.886Z,24.47
2018-07-13T11:02:47.989Z,24.41
2018-07-13T11:03:47.834Z,24.4
2018-07-13T11:04:47.883Z,24.43
2018-07-13T11:05:47.859Z,24.43
2018-07-13T11:06:47.922Z,24.46
2018-07-13T11:07:47.823Z,24.47
2018-07-13T11:08:47.956Z,24.41
2018-07-13T11:09:47.795Z,24.48
2018-07-13T11:10:47.834Z,24.46
2018-07-13T11:11:47.883Z,24.55
2018-07-13T11:12:47.885Z,24.44
2018-07-13T11:13:48.075Z,24.46
2018-07-13T11:14:47.857Z,24.59
2018-07-13T11:15:47.871Z,24.55
2018-07-13T11:16:47.852Z,24.61
2018-07-13T11:17:47.833Z,24.58
2018-07-13T11:18:47.816Z,24.46
2018-07-13T11:19:47.860Z,24.48
2018-07-13T11:20:47.958Z,24.46
2018-07-13T11:21:47.940Z,24.46
2018-07-13T11:22:47.891Z,24.51
2018-07-13T11:23:47.978Z,24.41
2018-07-13T11:24:47.921Z,24.47
2018-07-13T11:25:48.438Z,24.43
2018-07-13T11:26:47.829Z,24.5
2018-07-13T11:27:47.899Z,24.53
2018-07-13T11:28:47.832Z,24.55
2018-07-13T11:29:47.946Z,24.55
2018-07-13T11:30:47.867Z,24.59
2018-07-13T11:31:47.857Z,24.56
2018-07-13T11:32:48.091Z,24.59
2018-07-13T11:33:47.915Z,24.59
2018-07-13T11:34:47.866Z,24.62
2018-07-13T11:35:47.913Z,24.59
2018-07-13T11:36:48.006Z,24.62
2018-07-13T11:37:47.958Z,24.68
2018-07-13T11:38:47.875Z,24.66
2018-07-13T11:39:47.956Z,24.63
2018-07-13T11:40:47.939Z,24.62
2018-07-13T11:41:47.984Z,24.74
2018-07-13T11:42:47.979Z,24.71
2018-07-13T11:43:47.911Z,24.75
2018-07-13T11:44:47.974Z,24.71
2018-07-13T11:45:47.840Z,24.81
2018-07-13T11:46:47.853Z,24.77
2018-07-13T11:47:47.961Z,24.77
2018-07-13T11:48:47.917Z,24.81
2018-07-13T11:49:47.873Z,24.69
2018-07-13T11:50:47.873Z,24.74
2018-07-13T11:51:47.983Z,24.81
2018-07-13T11:52:47.875Z,24.74
2018-07-13T11:53:47.804Z,24.74
2018-07-13T11:54:47.814Z,24.77
2018-07-13T11:55:47.808Z,24.77
2018-07-13T11:56:47.867Z,24.74
2018-07-13T11:57:47.792Z,24.66
2018-07-13T11:58:47.792Z,24.69
2018-07-13T11:59:47.923Z,24.71
2018-07-13T12:00:47.838Z,24.74
2018-07-13T12:01:47.917Z,24.69
2018-07-13T12:02:47.819Z,24.69
2018-07-13T12:03:47.833Z,24.66
2018-07-13T12:04:47.777Z,24.69
2018-07-13T12:05:47.765Z,24.69
2018-07-13T12:06:47.799Z,24.68
2018-07-13T12:07:48.115Z,24.66
2018-07-13T12:08:47.966Z,24.61
2018-07-13T12:09:48.007Z,24.59
2018-07-13T12:10:47.913Z,24.65
2018-07-13T12:11:47.891Z,24.69
2018-07-13T12:12:48.020Z,24.63
2018-07-13T12:13:47.914Z,24.61
2018-07-13T12:14:47.990Z,24.62
2018-07-13T12:15:47.982Z,24.65
2018-07-13T12:16:48.178Z,24.65
2018-07-13T12:17:48.098Z,24.58
2018-07-13T12:18:47.951Z,24.59
2018-07-13T12:19:47.967Z,24.68
2018-07-13T12:20:47.918Z,24.59
2018-07-13T12:21:47.889Z,24.56
2018-07-13T12:22:47.980Z,24.61
2018-07-13T12:23:47.932Z,24.56
2018-07-13T12:24:47.887Z,24.62
2018-07-13T12:25:47.913Z,24.58
2018-07-13T12:26:48.593Z,24.58
2018-07-13T12:27:48.622Z,24.62
2018-07-13T12:28:47.946Z,24.58
2018-07-13T12:29:47.973Z,24.69
2018-07-13T12:30:47.979Z,24.61
2018-07-13T12:31:47.921Z,24.59
2018-07-13T12:32:47.926Z,24.63
2018-07-13T12:33:47.975Z,24.55
2018-07-13T12:34:48.009Z,24.53
2018-07-13T12:35:48.048Z,24.55
2018-07-13T12:36:48.032Z,24.59
2018-07-13T12:37:47.923Z,24.58
2018-07-13T12:38:47.989Z,24.59
2018-07-13T12:39:48.044Z,24.56
2018-07-13T12:40:47.948Z,24.62
2018-07-13T12:41:47.975Z,24.51
2018-07-13T12:42:47.979Z,24.53
2018-07-13T12:43:48.714Z,24.53
2018-07-13T12:44:48.017Z,24.53
2018-07-13T12:45:47.952Z,24.65
2018-07-13T12:46:47.983Z,24.55
2018-07-13T12:47:48.015Z,24.53
2018-07-13T12:48:48.007Z,24.55
2018-07-13T12:49:48.064Z,24.61
2018-07-13T12:50:48.053Z,24.51
2018-07-13T12:51:47.999Z,24.61
2018-07-13T12:52:47.991Z,24.5
2018-07-13T12:53:48.012Z,24.51
2018-07-13T12:54:48.075Z,24.56
2018-07-13T12:55:47.995Z,24.59
2018-07-13T12:56:48.085Z,24.53
2018-07-13T12:57:48.032Z,24.5
2018-07-13T12:58:48.043Z,24.58
2018-07-13T12:59:48.033Z,24.58
2018-07-13T13:00:48.026Z,24.59
2018-07-13T13:01:48.015Z,24.62
2018-07-13T13:02:48.194Z,24.58
2018-07-13T13:03:48.100Z,24.53
2018-07-13T13:04:48.024Z,24.5
2018-07-13T13:05:48.082Z,24.53
2018-07-13T13:06:48.019Z,24.55
2018-07-13T13:07:48.025Z,24.61
2018-07-13T13:08:48.027Z,24.58
2018-07-13T13:09:48.095Z,24.51
2018-07-13T13:10:48.034Z,24.51
2018-07-13T13:11:48.116Z,24.53
2018-07-13T13:12:48.265Z,24.56
2018-07-13T13:13:48.066Z,24.48
2018-07-13T13:18:16.688Z,24.5
2018-07-13T13:19:16.635Z,24.47
2018-07-13T13:20:16.645Z,24.55
2018-07-13T13:21:16.635Z,24.5
2018-07-13T13:22:16.636Z,24.56
2018-07-13T13:23:16.670Z,24.55
2018-07-13T13:24:16.643Z,24.51
2018-07-13T13:28:46.795Z,24.44
2018-07-13T13:29:45.291Z,24.59
2018-07-13T13:30:45.300Z,24.59
2018-07-13T13:31:45.303Z,24.59
2018-07-13T13:32:45.317Z,24.51
2018-07-13T13:33:45.263Z,24.51
2018-07-13T13:34:45.311Z,24.51
2018-07-13T13:35:45.388Z,24.5
2018-07-13T13:36:45.340Z,24.59
2018-07-13T13:37:45.377Z,24.51
2018-07-13T13:38:45.281Z,24.55
2018-07-13T13:39:45.315Z,24.48
2018-07-13T13:40:45.411Z,24.46
2018-07-13T13:41:45.352Z,24.51
2018-07-13T13:42:45.454Z,24.55
2018-07-13T13:43:45.383Z,24.53
2018-07-13T13:44:45.375Z,24.61
2018-07-13T13:45:45.403Z,24.5
2018-07-13T13:46:45.430Z,24.47
2018-07-13T13:47:45.360Z,24.46
2018-07-13T13:48:45.439Z,24.51
2018-07-13T13:49:45.482Z,24.56
2018-07-13T13:50:45.463Z,24.59
2018-07-13T13:51:45.392Z,24.58
2018-07-13T13:52:47.743Z,24.5
2018-07-13T13:53:45.511Z,24.5
2018-07-13T13:54:45.352Z,24.55
2018-07-13T13:55:45.367Z,24.5
2018-07-13T13:56:45.372Z,24.53
2018-07-13T13:57:45.402Z,24.53
2018-07-13T13:58:45.454Z,24.53
2018-07-13T13:59:45.568Z,24.5
2018-07-13T14:00:45.389Z,24.58
2018-07-13T14:01:45.421Z,24.53